sensor_id;sensor_type;location;lat;lon;timestamp;P1;durP1;ratioP1;P2;durP2;ratioP2
77280;SDS011;66339;47.262;17.144;2023-02-28T00:02:24;5.65;;;2.53;;
77280;SDS011;66339;47.262;17.144;2023-02-28T00:04:55;5.43;;;2.50;;
77280;SDS011;66339;47.262;17.144;2023-02-28T00:07:22;5.03;;;2.62;;
77280;SDS011;66339;47.262;17.144;2023-02-28T00:09:53;3.75;;;2.30;;
77280;SDS011;66339;47.262;17.144;2023-02-28T00:12:34;4.60;;;2.62;;
77280;SDS011;66339;47.262;17.144;2023-02-28T00:15:03;6.22;;;2.47;;
77280;SDS011;66339;47.262;17.144;2023-02-28T00:17:37;6.32;;;2.95;;
77280;SDS011;66339;47.262;17.144;2023-02-28T00:20:11;3.70;;;2.05;;
77280;SDS011;66339;47.262;17.144;2023-02-28T00:22:57;4.20;;;2.50;;
77280;SDS011;66339;47.262;17.144;2023-02-28T00:25:25;4.60;;;2.37;;
77280;SDS011;66339;47.262;17.144;2023-02-28T00:27:58;4.47;;;2.22;;
77280;SDS011;66339;47.262;17.144;2023-02-28T00:30:29;5.70;;;2.28;;
77280;SDS011;66339;47.262;17.144;2023-02-28T00:32:59;6.45;;;2.53;;
77280;SDS011;66339;47.262;17.144;2023-02-28T00:35:29;4.00;;;2.58;;
77280;SDS011;66339;47.262;17.144;2023-02-28T00:38:03;5.72;;;2.45;;
77280;SDS011;66339;47.262;17.144;2023-02-28T00:40:33;5.12;;;2.50;;
77280;SDS011;66339;47.262;17.144;2023-02-28T00:43:01;5.00;;;2.60;;
77280;SDS011;66339;47.262;17.144;2023-02-28T00:45:35;4.18;;;2.53;;
77280;SDS011;66339;47.262;17.144;2023-02-28T00:48:08;3.37;;;2.58;;
77280;SDS011;66339;47.262;17.144;2023-02-28T00:50:36;4.35;;;2.15;;
77280;SDS011;66339;47.262;17.144;2023-02-28T00:53:06;5.75;;;2.53;;
77280;SDS011;66339;47.262;17.144;2023-02-28T00:55:35;5.53;;;2.70;;
77280;SDS011;66339;47.262;17.144;2023-02-28T00:58:05;3.92;;;2.35;;
77280;SDS011;66339;47.262;17.144;2023-02-28T01:00:38;5.00;;;2.50;;
77280;SDS011;66339;47.262;17.144;2023-02-28T01:03:09;4.25;;;2.35;;
77280;SDS011;66339;47.262;17.144;2023-02-28T01:05:36;4.35;;;2.40;;
77280;SDS011;66339;47.262;17.144;2023-02-28T01:08:04;4.30;;;2.40;;
77280;SDS011;66339;47.262;17.144;2023-02-28T01:10:34;4.85;;;2.47;;
77280;SDS011;66339;47.262;17.144;2023-02-28T01:13:03;4.05;;;2.40;;
77280;SDS011;66339;47.262;17.144;2023-02-28T01:15:34;3.65;;;2.17;;
77280;SDS011;66339;47.262;17.144;2023-02-28T01:18:05;4.47;;;2.50;;
77280;SDS011;66339;47.262;17.144;2023-02-28T01:20:36;4.72;;;2.17;;
77280;SDS011;66339;47.262;17.144;2023-02-28T01:23:08;4.32;;;2.40;;
77280;SDS011;66339;47.262;17.144;2023-02-28T01:25:36;5.50;;;2.20;;
77280;SDS011;66339;47.262;17.144;2023-02-28T01:28:09;4.10;;;2.25;;
77280;SDS011;66339;47.262;17.144;2023-02-28T01:30:46;5.00;;;2.20;;
77280;SDS011;66339;47.262;17.144;2023-02-28T01:33:20;4.43;;;2.60;;
77280;SDS011;66339;47.262;17.144;2023-02-28T01:35:56;5.37;;;2.30;;
77280;SDS011;66339;47.262;17.144;2023-02-28T01:38:28;2.67;;;1.98;;
77280;SDS011;66339;47.262;17.144;2023-02-28T01:40:59;4.28;;;2.37;;
77280;SDS011;66339;47.262;17.144;2023-02-28T01:46:24;4.47;;;2.33;;
77280;SDS011;66339;47.262;17.144;2023-02-28T01:51:36;3.37;;;2.30;;
77280;SDS011;66339;47.262;17.144;2023-02-28T01:54:16;3.33;;;2.17;;
77280;SDS011;66339;47.262;17.144;2023-02-28T01:56:55;3.37;;;2.10;;
77280;SDS011;66339;47.262;17.144;2023-02-28T01:59:45;3.80;;;2.28;;
77280;SDS011;66339;47.262;17.144;2023-02-28T02:02:22;4.53;;;2.15;;
77280;SDS011;66339;47.262;17.144;2023-02-28T02:04:57;3.90;;;2.42;;
77280;SDS011;66339;47.262;17.144;2023-02-28T02:07:41;4.22;;;2.17;;
77280;SDS011;66339;47.262;17.144;2023-02-28T02:10:13;4.30;;;2.37;;
77280;SDS011;66339;47.262;17.144;2023-02-28T02:21:29;4.80;;;2.58;;
77280;SDS011;66339;47.262;17.144;2023-02-28T02:29:48;5.45;;;2.62;;
77280;SDS011;66339;47.262;17.144;2023-02-28T02:32:27;3.50;;;2.37;;
77280;SDS011;66339;47.262;17.144;2023-02-28T02:35:23;3.33;;;2.10;;
77280;SDS011;66339;47.262;17.144;2023-02-28T02:38:01;2.95;;;2.10;;
77280;SDS011;66339;47.262;17.144;2023-02-28T02:43:56;4.05;;;2.40;;
77280;SDS011;66339;47.262;17.144;2023-02-28T02:46:48;3.95;;;2.20;;
77280;SDS011;66339;47.262;17.144;2023-02-28T02:49:21;3.97;;;2.30;;
77280;SDS011;66339;47.262;17.144;2023-02-28T02:54:22;3.53;;;2.12;;
77280;SDS011;66339;47.262;17.144;2023-02-28T02:57:01;3.00;;;2.17;;
77280;SDS011;66339;47.262;17.144;2023-02-28T02:59:35;3.90;;;2.40;;
77280;SDS011;66339;47.262;17.144;2023-02-28T03:02:06;4.00;;;2.30;;
77280;SDS011;66339;47.262;17.144;2023-02-28T03:05:12;3.97;;;2.40;;
77280;SDS011;66339;47.262;17.144;2023-02-28T03:07:35;4.32;;;2.40;;
77280;SDS011;66339;47.262;17.144;2023-02-28T03:18:40;3.67;;;2.47;;
77280;SDS011;66339;47.262;17.144;2023-02-28T03:21:34;4.25;;;2.17;;
77280;SDS011;66339;47.262;17.144;2023-02-28T03:24:14;3.42;;;2.45;;
77280;SDS011;66339;47.262;17.144;2023-02-28T03:26:54;4.22;;;2.30;;
77280;SDS011;66339;47.262;17.144;2023-02-28T03:29:35;2.75;;;2.10;;
77280;SDS011;66339;47.262;17.144;2023-02-28T03:35:00;4.28;;;2.30;;
77280;SDS011;66339;47.262;17.144;2023-02-28T03:37:40;4.72;;;2.92;;
77280;SDS011;66339;47.262;17.144;2023-02-28T03:40:22;4.60;;;2.35;;
77280;SDS011;66339;47.262;17.144;2023-02-28T03:42:58;4.65;;;2.30;;
77280;SDS011;66339;47.262;17.144;2023-02-28T03:45:35;4.22;;;2.45;;
77280;SDS011;66339;47.262;17.144;2023-02-28T03:48:19;3.12;;;2.10;;
77280;SDS011;66339;47.262;17.144;2023-02-28T03:53:34;5.68;;;2.42;;
77280;SDS011;66339;47.262;17.144;2023-02-28T04:02:11;3.58;;;2.20;;
77280;SDS011;66339;47.262;17.144;2023-02-28T04:04:42;3.62;;;2.30;;
77280;SDS011;66339;47.262;17.144;2023-02-28T04:07:10;3.42;;;2.20;;
77280;SDS011;66339;47.262;17.144;2023-02-28T04:09:44;5.35;;;2.25;;
77280;SDS011;66339;47.262;17.144;2023-02-28T04:12:15;4.07;;;2.40;;
77280;SDS011;66339;47.262;17.144;2023-02-28T04:14:49;3.60;;;2.22;;
77280;SDS011;66339;47.262;17.144;2023-02-28T04:17:17;4.10;;;2.50;;
77280;SDS011;66339;47.262;17.144;2023-02-28T04:19:50;3.17;;;2.20;;
77280;SDS011;66339;47.262;17.144;2023-02-28T04:22:26;3.22;;;2.00;;
77280;SDS011;66339;47.262;17.144;2023-02-28T04:24:56;3.33;;;2.20;;
77280;SDS011;66339;47.262;17.144;2023-02-28T04:27:30;2.95;;;2.12;;
77280;SDS011;66339;47.262;17.144;2023-02-28T04:30:07;2.95;;;2.03;;
77280;SDS011;66339;47.262;17.144;2023-02-28T04:32:44;3.15;;;2.05;;
77280;SDS011;66339;47.262;17.144;2023-02-28T04:35:11;4.22;;;2.17;;
77280;SDS011;66339;47.262;17.144;2023-02-28T04:37:39;3.67;;;2.10;;
77280;SDS011;66339;47.262;17.144;2023-02-28T04:40:07;2.72;;;2.00;;
77280;SDS011;66339;47.262;17.144;2023-02-28T04:42:36;3.47;;;2.33;;
77280;SDS011;66339;47.262;17.144;2023-02-28T04:45:10;3.90;;;2.40;;
77280;SDS011;66339;47.262;17.144;2023-02-28T04:47:41;3.83;;;2.60;;
77280;SDS011;66339;47.262;17.144;2023-02-28T04:50:17;2.80;;;2.05;;
77280;SDS011;66339;47.262;17.144;2023-02-28T04:52:54;3.60;;;2.30;;
77280;SDS011;66339;47.262;17.144;2023-02-28T04:55:31;3.00;;;2.28;;
77280;SDS011;66339;47.262;17.144;2023-02-28T04:58:02;4.10;;;2.50;;
77280;SDS011;66339;47.262;17.144;2023-02-28T05:00:35;8.63;;;4.32;;
77280;SDS011;66339;47.262;17.144;2023-02-28T05:03:05;9.50;;;6.18;;
77280;SDS011;66339;47.262;17.144;2023-02-28T05:05:32;8.57;;;5.55;;
77280;SDS011;66339;47.262;17.144;2023-02-28T05:08:06;7.60;;;5.00;;
77280;SDS011;66339;47.262;17.144;2023-02-28T05:10:38;6.97;;;5.03;;
77280;SDS011;66339;47.262;17.144;2023-02-28T05:13:12;10.07;;;4.87;;
77280;SDS011;66339;47.262;17.144;2023-02-28T05:15:40;6.82;;;4.12;;
77280;SDS011;66339;47.262;17.144;2023-02-28T05:18:14;7.00;;;3.70;;
77280;SDS011;66339;47.262;17.144;2023-02-28T05:20:46;5.57;;;3.28;;
77280;SDS011;66339;47.262;17.144;2023-02-28T05:23:18;5.62;;;3.25;;
77280;SDS011;66339;47.262;17.144;2023-02-28T05:25:50;5.30;;;3.30;;
77280;SDS011;66339;47.262;17.144;2023-02-28T05:28:24;8.02;;;3.62;;
77280;SDS011;66339;47.262;17.144;2023-02-28T05:30:55;4.28;;;2.83;;
77280;SDS011;66339;47.262;17.144;2023-02-28T05:33:23;6.68;;;3.10;;
77280;SDS011;66339;47.262;17.144;2023-02-28T05:35:57;7.30;;;3.35;;
77280;SDS011;66339;47.262;17.144;2023-02-28T05:38:31;8.05;;;3.45;;
77280;SDS011;66339;47.262;17.144;2023-02-28T05:41:05;5.68;;;3.20;;
77280;SDS011;66339;47.262;17.144;2023-02-28T05:43:37;10.88;;;3.10;;
77280;SDS011;66339;47.262;17.144;2023-02-28T05:46:08;5.37;;;3.15;;
77280;SDS011;66339;47.262;17.144;2023-02-28T05:48:48;6.22;;;3.22;;
77280;SDS011;66339;47.262;17.144;2023-02-28T05:51:21;6.30;;;3.12;;
77280;SDS011;66339;47.262;17.144;2023-02-28T05:53:52;6.97;;;2.80;;
77280;SDS011;66339;47.262;17.144;2023-02-28T05:56:23;5.87;;;3.55;;
77280;SDS011;66339;47.262;17.144;2023-02-28T05:58:54;6.72;;;2.65;;
77280;SDS011;66339;47.262;17.144;2023-02-28T06:01:30;5.30;;;2.90;;
77280;SDS011;66339;47.262;17.144;2023-02-28T06:04:03;7.12;;;2.72;;
77280;SDS011;66339;47.262;17.144;2023-02-28T06:06:58;6.68;;;2.67;;
77280;SDS011;66339;47.262;17.144;2023-02-28T06:09:43;15.55;;;3.20;;
77280;SDS011;66339;47.262;17.144;2023-02-28T06:15:01;5.30;;;2.87;;
77280;SDS011;66339;47.262;17.144;2023-02-28T06:17:38;4.82;;;2.85;;
77280;SDS011;66339;47.262;17.144;2023-02-28T06:20:12;6.18;;;2.85;;
77280;SDS011;66339;47.262;17.144;2023-02-28T06:22:46;8.43;;;3.22;;
77280;SDS011;66339;47.262;17.144;2023-02-28T06:25:24;11.15;;;3.17;;
77280;SDS011;66339;47.262;17.144;2023-02-28T06:27:51;10.82;;;2.87;;
77280;SDS011;66339;47.262;17.144;2023-02-28T06:30:22;6.43;;;2.53;;
77280;SDS011;66339;47.262;17.144;2023-02-28T06:32:53;5.10;;;2.65;;
77280;SDS011;66339;47.262;17.144;2023-02-28T06:35:31;7.32;;;2.72;;
77280;SDS011;66339;47.262;17.144;2023-02-28T06:40:55;9.13;;;2.90;;
77280;SDS011;66339;47.262;17.144;2023-02-28T06:43:34;5.15;;;2.65;;
77280;SDS011;66339;47.262;17.144;2023-02-28T06:46:08;5.15;;;2.95;;
77280;SDS011;66339;47.262;17.144;2023-02-28T06:48:40;6.80;;;2.53;;
77280;SDS011;66339;47.262;17.144;2023-02-28T06:51:12;7.32;;;3.08;;
77280;SDS011;66339;47.262;17.144;2023-02-28T06:53:50;10.82;;;2.75;;
77280;SDS011;66339;47.262;17.144;2023-02-28T06:56:28;9.05;;;3.08;;
77280;SDS011;66339;47.262;17.144;2023-02-28T07:01:23;7.12;;;2.97;;
77280;SDS011;66339;47.262;17.144;2023-02-28T07:03:51;14.55;;;3.67;;
77280;SDS011;66339;47.262;17.144;2023-02-28T07:06:28;6.95;;;3.50;;
77280;SDS011;66339;47.262;17.144;2023-02-28T07:09:01;11.95;;;3.92;;
77280;SDS011;66339;47.262;17.144;2023-02-28T07:11:39;12.30;;;3.40;;
77280;SDS011;66339;47.262;17.144;2023-02-28T07:14:14;10.07;;;3.67;;
77280;SDS011;66339;47.262;17.144;2023-02-28T07:16:48;16.98;;;3.50;;
77280;SDS011;66339;47.262;17.144;2023-02-28T07:19:19;9.05;;;3.15;;
77280;SDS011;66339;47.262;17.144;2023-02-28T07:21:55;12.05;;;3.42;;
77280;SDS011;66339;47.262;17.144;2023-02-28T07:24:29;11.07;;;3.58;;
77280;SDS011;66339;47.262;17.144;2023-02-28T07:27:08;8.02;;;3.62;;
77280;SDS011;66339;47.262;17.144;2023-02-28T07:29:47;8.50;;;3.50;;
77280;SDS011;66339;47.262;17.144;2023-02-28T07:32:17;9.35;;;4.20;;
77280;SDS011;66339;47.262;17.144;2023-02-28T07:34:52;16.75;;;6.05;;
77280;SDS011;66339;47.262;17.144;2023-02-28T07:37:23;19.12;;;6.82;;
77280;SDS011;66339;47.262;17.144;2023-02-28T07:40:01;15.35;;;7.40;;
77280;SDS011;66339;47.262;17.144;2023-02-28T07:42:34;17.23;;;7.90;;
77280;SDS011;66339;47.262;17.144;2023-02-28T07:45:08;21.77;;;9.60;;
77280;SDS011;66339;47.262;17.144;2023-02-28T07:47:47;18.50;;;9.27;;
77280;SDS011;66339;47.262;17.144;2023-02-28T07:50:23;21.12;;;9.68;;
77280;SDS011;66339;47.262;17.144;2023-02-28T07:52:57;19.95;;;9.55;;
77280;SDS011;66339;47.262;17.144;2023-02-28T07:55:28;15.55;;;8.43;;
77280;SDS011;66339;47.262;17.144;2023-02-28T07:58:16;17.45;;;8.63;;
77280;SDS011;66339;47.262;17.144;2023-02-28T08:00:46;18.25;;;7.90;;
77280;SDS011;66339;47.262;17.144;2023-02-28T08:03:24;17.10;;;7.93;;
77280;SDS011;66339;47.262;17.144;2023-02-28T08:05:55;15.48;;;7.70;;
77280;SDS011;66339;47.262;17.144;2023-02-28T08:08:28;14.40;;;7.20;;
77280;SDS011;66339;47.262;17.144;2023-02-28T08:11:02;15.38;;;7.45;;
77280;SDS011;66339;47.262;17.144;2023-02-28T08:13:33;14.48;;;6.43;;
77280;SDS011;66339;47.262;17.144;2023-02-28T08:16:08;13.70;;;6.22;;
77280;SDS011;66339;47.262;17.144;2023-02-28T08:18:44;13.77;;;6.12;;
77280;SDS011;66339;47.262;17.144;2023-02-28T08:21:18;20.58;;;6.70;;
77280;SDS011;66339;47.262;17.144;2023-02-28T08:28:58;11.35;;;5.47;;
77280;SDS011;66339;47.262;17.144;2023-02-28T08:31:29;11.60;;;5.00;;
77280;SDS011;66339;47.262;17.144;2023-02-28T08:34:07;13.40;;;5.85;;
77280;SDS011;66339;47.262;17.144;2023-02-28T08:36:36;14.68;;;4.87;;
77280;SDS011;66339;47.262;17.144;2023-02-28T08:39:07;14.43;;;5.50;;
77280;SDS011;66339;47.262;17.144;2023-02-28T08:41:44;16.27;;;5.32;;
77280;SDS011;66339;47.262;17.144;2023-02-28T08:44:32;31.80;;;5.12;;
77280;SDS011;66339;47.262;17.144;2023-02-28T08:46:59;17.98;;;5.22;;
77280;SDS011;66339;47.262;17.144;2023-02-28T08:49:36;16.30;;;5.10;;
77280;SDS011;66339;47.262;17.144;2023-02-28T08:52:07;14.75;;;5.00;;
77280;SDS011;66339;47.262;17.144;2023-02-28T08:54:35;10.20;;;4.90;;
77280;SDS011;66339;47.262;17.144;2023-02-28T08:57:09;16.30;;;5.00;;
77280;SDS011;66339;47.262;17.144;2023-02-28T08:59:44;18.48;;;5.15;;
77280;SDS011;66339;47.262;17.144;2023-02-28T09:02:18;15.82;;;5.32;;
77280;SDS011;66339;47.262;17.144;2023-02-28T09:05:09;21.20;;;5.40;;
77280;SDS011;66339;47.262;17.144;2023-02-28T09:07:40;12.57;;;4.95;;
77280;SDS011;66339;47.262;17.144;2023-02-28T09:13:20;15.82;;;4.22;;
77280;SDS011;66339;47.262;17.144;2023-02-28T09:16:15;11.65;;;4.37;;
77280;SDS011;66339;47.262;17.144;2023-02-28T09:18:48;14.93;;;4.40;;
77280;SDS011;66339;47.262;17.144;2023-02-28T09:21:26;13.40;;;3.85;;
77280;SDS011;66339;47.262;17.144;2023-02-28T09:23:58;14.02;;;4.18;;
77280;SDS011;66339;47.262;17.144;2023-02-28T09:26:28;14.10;;;4.43;;
77280;SDS011;66339;47.262;17.144;2023-02-28T09:29:30;14.63;;;4.53;;
77280;SDS011;66339;47.262;17.144;2023-02-28T09:32:12;13.07;;;3.78;;
77280;SDS011;66339;47.262;17.144;2023-02-28T09:34:47;10.35;;;3.95;;
77280;SDS011;66339;47.262;17.144;2023-02-28T09:43:42;10.40;;;3.83;;
77280;SDS011;66339;47.262;17.144;2023-02-28T09:46:25;11.25;;;4.03;;
77280;SDS011;66339;47.262;17.144;2023-02-28T09:49:46;20.12;;;3.58;;
77280;SDS011;66339;47.262;17.144;2023-02-28T09:52:10;14.25;;;3.70;;
77280;SDS011;66339;47.262;17.144;2023-02-28T09:54:46;24.92;;;4.95;;
77280;SDS011;66339;47.262;17.144;2023-02-28T09:57:33;8.63;;;4.47;;
77280;SDS011;66339;47.262;17.144;2023-02-28T10:00:13;17.90;;;4.07;;
77280;SDS011;66339;47.262;17.144;2023-02-28T10:08:51;16.20;;;4.87;;
77280;SDS011;66339;47.262;17.144;2023-02-28T10:11:26;18.65;;;4.12;;
77280;SDS011;66339;47.262;17.144;2023-02-28T10:13:59;17.55;;;4.15;;
77280;SDS011;66339;47.262;17.144;2023-02-28T10:19:35;14.48;;;4.00;;
77280;SDS011;66339;47.262;17.144;2023-02-28T10:24:52;28.45;;;5.45;;
77280;SDS011;66339;47.262;17.144;2023-02-28T10:29:58;18.50;;;3.95;;
77280;SDS011;66339;47.262;17.144;2023-02-28T10:32:38;14.02;;;4.10;;
77280;SDS011;66339;47.262;17.144;2023-02-28T10:35:14;12.85;;;3.70;;
77280;SDS011;66339;47.262;17.144;2023-02-28T10:37:55;11.80;;;3.87;;
77280;SDS011;66339;47.262;17.144;2023-02-28T10:40:38;11.93;;;3.53;;
77280;SDS011;66339;47.262;17.144;2023-02-28T10:45:59;14.45;;;3.85;;
77280;SDS011;66339;47.262;17.144;2023-02-28T10:48:40;16.27;;;3.67;;
77280;SDS011;66339;47.262;17.144;2023-02-28T10:51:15;11.40;;;3.25;;
77280;SDS011;66339;47.262;17.144;2023-02-28T10:53:48;15.65;;;3.58;;
77280;SDS011;66339;47.262;17.144;2023-02-28T10:56:29;16.33;;;3.72;;
77280;SDS011;66339;47.262;17.144;2023-02-28T11:01:57;13.07;;;3.45;;
77280;SDS011;66339;47.262;17.144;2023-02-28T11:07:25;10.40;;;3.92;;
77280;SDS011;66339;47.262;17.144;2023-02-28T11:10:06;10.68;;;3.37;;
77280;SDS011;66339;47.262;17.144;2023-02-28T11:12:47;8.13;;;3.42;;
77280;SDS011;66339;47.262;17.144;2023-02-28T11:15:35;11.05;;;3.20;;
77280;SDS011;66339;47.262;17.144;2023-02-28T11:18:15;9.27;;;3.70;;
77280;SDS011;66339;47.262;17.144;2023-02-28T11:21:08;10.40;;;3.53;;
77280;SDS011;66339;47.262;17.144;2023-02-28T11:23:51;9.57;;;3.12;;
77280;SDS011;66339;47.262;17.144;2023-02-28T11:26:53;9.60;;;3.05;;
77280;SDS011;66339;47.262;17.144;2023-02-28T11:29:24;12.37;;;3.40;;
77280;SDS011;66339;47.262;17.144;2023-02-28T11:34:39;7.30;;;3.30;;
77280;SDS011;66339;47.262;17.144;2023-02-28T11:37:12;9.73;;;2.97;;
77280;SDS011;66339;47.262;17.144;2023-02-28T11:39:50;8.88;;;3.20;;
77280;SDS011;66339;47.262;17.144;2023-02-28T12:01:36;8.48;;;3.28;;
77280;SDS011;66339;47.262;17.144;2023-02-28T12:10:24;7.72;;;2.87;;
77280;SDS011;66339;47.262;17.144;2023-02-28T12:15:32;7.10;;;2.72;;
77280;SDS011;66339;47.262;17.144;2023-02-28T12:18:42;8.95;;;4.18;;
77280;SDS011;66339;47.262;17.144;2023-02-28T12:56:16;10.50;;;3.10;;
77280;SDS011;66339;47.262;17.144;2023-02-28T12:58:50;8.68;;;3.00;;
77280;SDS011;66339;47.262;17.144;2023-02-28T13:11:01;4.53;;;2.60;;
77280;SDS011;66339;47.262;17.144;2023-02-28T13:14:03;12.88;;;3.10;;
77280;SDS011;66339;47.262;17.144;2023-02-28T13:35:43;30.95;;;13.13;;
77280;SDS011;66339;47.262;17.144;2023-02-28T13:44:05;19.67;;;9.77;;
77280;SDS011;66339;47.262;17.144;2023-02-28T14:06:13;11.18;;;6.00;;
77280;SDS011;66339;47.262;17.144;2023-02-28T14:08:46;11.63;;;5.80;;
77280;SDS011;66339;47.262;17.144;2023-02-28T14:11:31;10.23;;;5.32;;
77280;SDS011;66339;47.262;17.144;2023-02-28T14:14:09;11.02;;;5.00;;
77280;SDS011;66339;47.262;17.144;2023-02-28T14:17:03;11.23;;;4.87;;
77280;SDS011;66339;47.262;17.144;2023-02-28T14:19:48;9.02;;;5.03;;
77280;SDS011;66339;47.262;17.144;2023-02-28T14:22:27;10.27;;;5.18;;
77280;SDS011;66339;47.262;17.144;2023-02-28T14:25:17;8.82;;;4.85;;
77280;SDS011;66339;47.262;17.144;2023-02-28T14:28:50;10.50;;;4.68;;
77280;SDS011;66339;47.262;17.144;2023-02-28T14:31:13;8.52;;;4.78;;
77280;SDS011;66339;47.262;17.144;2023-02-28T14:59:38;5.10;;;3.12;;
77280;SDS011;66339;47.262;17.144;2023-02-28T15:02:26;9.27;;;3.95;;
77280;SDS011;66339;47.262;17.144;2023-02-28T15:08:06;10.38;;;3.62;;
77280;SDS011;66339;47.262;17.144;2023-02-28T15:10:42;8.02;;;3.55;;
77280;SDS011;66339;47.262;17.144;2023-02-28T15:13:18;6.28;;;3.55;;
77280;SDS011;66339;47.262;17.144;2023-02-28T15:21:45;8.07;;;3.75;;
77280;SDS011;66339;47.262;17.144;2023-02-28T15:27:18;11.05;;;4.15;;
77280;SDS011;66339;47.262;17.144;2023-02-28T15:30:05;5.97;;;3.75;;
77280;SDS011;66339;47.262;17.144;2023-02-28T15:35:50;10.63;;;4.25;;
77280;SDS011;66339;47.262;17.144;2023-02-28T15:39:00;8.55;;;4.22;;
77280;SDS011;66339;47.262;17.144;2023-02-28T15:42:23;9.73;;;4.00;;
77280;SDS011;66339;47.262;17.144;2023-02-28T15:48:04;6.85;;;3.80;;
77280;SDS011;66339;47.262;17.144;2023-02-28T15:50:55;10.80;;;4.22;;
77280;SDS011;66339;47.262;17.144;2023-02-28T15:59:37;7.90;;;3.80;;
77280;SDS011;66339;47.262;17.144;2023-02-28T16:04:55;6.57;;;3.97;;
77280;SDS011;66339;47.262;17.144;2023-02-28T16:07:31;7.75;;;4.03;;
77280;SDS011;66339;47.262;17.144;2023-02-28T16:15:33;11.05;;;4.47;;
77280;SDS011;66339;47.262;17.144;2023-02-28T16:20:57;11.93;;;3.85;;
77280;SDS011;66339;47.262;17.144;2023-02-28T16:23:25;9.13;;;3.90;;
77280;SDS011;66339;47.262;17.144;2023-02-28T16:26:00;9.27;;;3.65;;
77280;SDS011;66339;47.262;17.144;2023-02-28T16:28:36;11.30;;;4.00;;
77280;SDS011;66339;47.262;17.144;2023-02-28T16:31:08;10.40;;;4.10;;
77280;SDS011;66339;47.262;17.144;2023-02-28T16:33:42;9.65;;;4.00;;
77280;SDS011;66339;47.262;17.144;2023-02-28T16:36:15;9.30;;;3.83;;
77280;SDS011;66339;47.262;17.144;2023-02-28T16:38:50;7.65;;;3.80;;
77280;SDS011;66339;47.262;17.144;2023-02-28T16:41:25;9.40;;;3.80;;
77280;SDS011;66339;47.262;17.144;2023-02-28T16:44:00;5.87;;;3.50;;
77280;SDS011;66339;47.262;17.144;2023-02-28T16:46:34;6.72;;;3.70;;
77280;SDS011;66339;47.262;17.144;2023-02-28T16:51:50;9.73;;;3.72;;
77280;SDS011;66339;47.262;17.144;2023-02-28T16:54:23;8.65;;;3.53;;
77280;SDS011;66339;47.262;17.144;2023-02-28T16:56:52;5.78;;;3.42;;
77280;SDS011;66339;47.262;17.144;2023-02-28T16:59:26;8.38;;;3.97;;
77280;SDS011;66339;47.262;17.144;2023-02-28T17:01:55;8.43;;;3.42;;
77280;SDS011;66339;47.262;17.144;2023-02-28T17:04:26;9.45;;;3.40;;
77280;SDS011;66339;47.262;17.144;2023-02-28T17:06:57;7.43;;;3.55;;
77280;SDS011;66339;47.262;17.144;2023-02-28T17:12:06;9.60;;;5.28;;
77280;SDS011;66339;47.262;17.144;2023-02-28T17:22:48;11.82;;;4.00;;
77280;SDS011;66339;47.262;17.144;2023-02-28T17:25:27;10.85;;;4.60;;
77280;SDS011;66339;47.262;17.144;2023-02-28T17:27:57;8.77;;;3.75;;
77280;SDS011;66339;47.262;17.144;2023-02-28T17:30:31;9.60;;;4.12;;
77280;SDS011;66339;47.262;17.144;2023-02-28T17:33:10;10.18;;;3.90;;
77280;SDS011;66339;47.262;17.144;2023-02-28T17:35:47;9.25;;;3.58;;
77280;SDS011;66339;47.262;17.144;2023-02-28T17:38:20;8.73;;;3.87;;
77280;SDS011;66339;47.262;17.144;2023-02-28T17:41:00;10.40;;;3.70;;
77280;SDS011;66339;47.262;17.144;2023-02-28T17:43:28;11.45;;;4.70;;
77280;SDS011;66339;47.262;17.144;2023-02-28T17:46:00;11.27;;;4.60;;
77280;SDS011;66339;47.262;17.144;2023-02-28T17:48:32;19.77;;;4.70;;
77280;SDS011;66339;47.262;17.144;2023-02-28T17:51:03;16.08;;;4.37;;
77280;SDS011;66339;47.262;17.144;2023-02-28T17:53:37;14.43;;;4.22;;
77280;SDS011;66339;47.262;17.144;2023-02-28T17:56:05;12.77;;;5.32;;
77280;SDS011;66339;47.262;17.144;2023-02-28T18:17:51;9.77;;;4.35;;
77280;SDS011;66339;47.262;17.144;2023-02-28T18:20:19;12.10;;;4.60;;
77280;SDS011;66339;47.262;17.144;2023-02-28T18:25:24;11.18;;;4.87;;
77280;SDS011;66339;47.262;17.144;2023-02-28T18:27:52;10.80;;;4.68;;
77280;SDS011;66339;47.262;17.144;2023-02-28T18:30:20;13.00;;;5.45;;
77280;SDS011;66339;47.262;17.144;2023-02-28T18:32:51;13.98;;;5.07;;
77280;SDS011;66339;47.262;17.144;2023-02-28T18:35:21;9.15;;;4.60;;
77280;SDS011;66339;47.262;17.144;2023-02-28T18:37:49;14.50;;;5.10;;
77280;SDS011;66339;47.262;17.144;2023-02-28T18:55:08;11.93;;;4.53;;
77280;SDS011;66339;47.262;17.144;2023-02-28T20:32:00;7.40;;;4.03;;
77280;SDS011;66339;47.262;17.144;2023-02-28T21:10:38;7.55;;;4.82;;
77280;SDS011;66339;47.262;17.144;2023-02-28T21:16:32;8.48;;;4.55;;
77280;SDS011;66339;47.262;17.144;2023-02-28T21:19:15;8.35;;;4.75;;
77280;SDS011;66339;47.262;17.144;2023-02-28T21:25:04;5.97;;;4.60;;
77280;SDS011;66339;47.262;17.144;2023-02-28T21:30:31;7.57;;;4.68;;
77280;SDS011;66339;47.262;17.144;2023-02-28T22:09:34;9.80;;;4.80;;
77280;SDS011;66339;47.262;17.144;2023-02-28T22:15:48;8.32;;;4.80;;
77280;SDS011;66339;47.262;17.144;2023-02-28T22:38:10;7.25;;;5.37;;
77280;SDS011;66339;47.262;17.144;2023-02-28T22:40:44;7.40;;;5.37;;
